sensor_id;sensor_type;location;lat;lon;timestamp;P1;durP1;ratioP1;P2;durP2;ratioP2
72301;SDS011;60235;52.234;5.186;2022-08-19T00:01:09;10.88;;;5.15;;
72301;SDS011;60235;52.234;5.186;2022-08-19T00:03:36;9.70;;;5.45;;
72301;SDS011;60235;52.234;5.186;2022-08-19T00:06:03;11.70;;;5.80;;
72301;SDS011;60235;52.234;5.186;2022-08-19T00:08:29;12.40;;;5.95;;
72301;SDS011;60235;52.234;5.186;2022-08-19T00:10:55;11.30;;;5.55;;
72301;SDS011;60235;52.234;5.186;2022-08-19T00:13:21;10.27;;;5.57;;
72301;SDS011;60235;52.234;5.186;2022-08-19T00:15:47;11.63;;;5.30;;
72301;SDS011;60235;52.234;5.186;2022-08-19T00:18:12;10.27;;;5.65;;
72301;SDS011;60235;52.234;5.186;2022-08-19T00:20:38;10.95;;;5.40;;
72301;SDS011;60235;52.234;5.186;2022-08-19T00:23:05;11.10;;;5.72;;
72301;SDS011;60235;52.234;5.186;2022-08-19T00:25:31;12.48;;;5.70;;
72301;SDS011;60235;52.234;5.186;2022-08-19T00:27:58;11.95;;;6.20;;
72301;SDS011;60235;52.234;5.186;2022-08-19T00:30:24;16.17;;;6.20;;
72301;SDS011;60235;52.234;5.186;2022-08-19T00:32:52;16.25;;;6.65;;
72301;SDS011;60235;52.234;5.186;2022-08-19T00:35:21;10.32;;;5.78;;
72301;SDS011;60235;52.234;5.186;2022-08-19T00:37:48;12.48;;;6.30;;
72301;SDS011;60235;52.234;5.186;2022-08-19T00:40:14;11.82;;;6.18;;
72301;SDS011;60235;52.234;5.186;2022-08-19T00:42:41;14.05;;;6.70;;
72301;SDS011;60235;52.234;5.186;2022-08-19T00:45:09;11.70;;;5.85;;
72301;SDS011;60235;52.234;5.186;2022-08-19T00:47:36;11.23;;;6.20;;
72301;SDS011;60235;52.234;5.186;2022-08-19T00:50:02;12.20;;;6.20;;
72301;SDS011;60235;52.234;5.186;2022-08-19T00:52:32;12.60;;;6.25;;
72301;SDS011;60235;52.234;5.186;2022-08-19T00:54:59;11.77;;;6.35;;
72301;SDS011;60235;52.234;5.186;2022-08-19T00:57:30;10.07;;;5.40;;
72301;SDS011;60235;52.234;5.186;2022-08-19T00:59:56;10.85;;;5.65;;
72301;SDS011;60235;52.234;5.186;2022-08-19T01:02:24;10.15;;;5.63;;
72301;SDS011;60235;52.234;5.186;2022-08-19T01:04:50;10.45;;;5.95;;
72301;SDS011;60235;52.234;5.186;2022-08-19T01:07:16;12.70;;;5.65;;
72301;SDS011;60235;52.234;5.186;2022-08-19T01:09:43;11.02;;;6.07;;
72301;SDS011;60235;52.234;5.186;2022-08-19T01:12:09;10.30;;;5.20;;
72301;SDS011;60235;52.234;5.186;2022-08-19T01:14:36;10.98;;;5.45;;
72301;SDS011;60235;52.234;5.186;2022-08-19T01:17:02;9.23;;;4.95;;
72301;SDS011;60235;52.234;5.186;2022-08-19T01:19:30;9.98;;;4.68;;
72301;SDS011;60235;52.234;5.186;2022-08-19T01:24:49;10.25;;;4.88;;
72301;SDS011;60235;52.234;5.186;2022-08-19T01:27:16;14.65;;;5.18;;
72301;SDS011;60235;52.234;5.186;2022-08-19T01:29:42;12.95;;;5.10;;
72301;SDS011;60235;52.234;5.186;2022-08-19T01:32:11;9.40;;;4.60;;
72301;SDS011;60235;52.234;5.186;2022-08-19T01:34:37;10.90;;;4.85;;
72301;SDS011;60235;52.234;5.186;2022-08-19T01:37:10;8.50;;;4.53;;
72301;SDS011;60235;52.234;5.186;2022-08-19T01:39:37;9.10;;;4.53;;
72301;SDS011;60235;52.234;5.186;2022-08-19T01:42:03;9.07;;;5.00;;
72301;SDS011;60235;52.234;5.186;2022-08-19T01:44:31;11.25;;;4.68;;
72301;SDS011;60235;52.234;5.186;2022-08-19T01:46:57;9.50;;;4.50;;
72301;SDS011;60235;52.234;5.186;2022-08-19T01:49:23;12.57;;;5.43;;
72301;SDS011;60235;52.234;5.186;2022-08-19T01:51:51;9.98;;;4.78;;
72301;SDS011;60235;52.234;5.186;2022-08-19T01:54:19;10.40;;;5.07;;
72301;SDS011;60235;52.234;5.186;2022-08-19T01:56:46;12.27;;;4.85;;
72301;SDS011;60235;52.234;5.186;2022-08-19T01:59:14;9.80;;;4.93;;
72301;SDS011;60235;52.234;5.186;2022-08-19T02:01:40;9.02;;;5.05;;
72301;SDS011;60235;52.234;5.186;2022-08-19T02:04:07;11.13;;;4.88;;
72301;SDS011;60235;52.234;5.186;2022-08-19T02:06:33;9.35;;;4.95;;
72301;SDS011;60235;52.234;5.186;2022-08-19T02:08:59;15.52;;;5.35;;
72301;SDS011;60235;52.234;5.186;2022-08-19T02:11:26;11.35;;;4.95;;
72301;SDS011;60235;52.234;5.186;2022-08-19T02:13:54;9.52;;;5.07;;
72301;SDS011;60235;52.234;5.186;2022-08-19T02:16:20;10.27;;;5.10;;
72301;SDS011;60235;52.234;5.186;2022-08-19T02:18:46;10.00;;;4.82;;
72301;SDS011;60235;52.234;5.186;2022-08-19T02:21:19;9.63;;;4.97;;
72301;SDS011;60235;52.234;5.186;2022-08-19T02:23:46;11.23;;;5.38;;
72301;SDS011;60235;52.234;5.186;2022-08-19T02:26:12;10.52;;;5.07;;
72301;SDS011;60235;52.234;5.186;2022-08-19T02:28:39;10.70;;;5.43;;
72301;SDS011;60235;52.234;5.186;2022-08-19T02:31:08;8.63;;;4.90;;
72301;SDS011;60235;52.234;5.186;2022-08-19T02:33:34;9.68;;;5.18;;
72301;SDS011;60235;52.234;5.186;2022-08-19T02:36:03;13.70;;;5.35;;
72301;SDS011;60235;52.234;5.186;2022-08-19T02:38:29;11.40;;;5.70;;
72301;SDS011;60235;52.234;5.186;2022-08-19T02:40:57;10.23;;;5.10;;
72301;SDS011;60235;52.234;5.186;2022-08-19T02:43:23;11.48;;;5.50;;
72301;SDS011;60235;52.234;5.186;2022-08-19T02:45:50;9.23;;;4.80;;
72301;SDS011;60235;52.234;5.186;2022-08-19T02:48:20;10.55;;;5.28;;
72301;SDS011;60235;52.234;5.186;2022-08-19T02:50:46;9.25;;;5.10;;
72301;SDS011;60235;52.234;5.186;2022-08-19T02:53:13;10.55;;;5.20;;
72301;SDS011;60235;52.234;5.186;2022-08-19T02:55:43;11.70;;;5.47;;
72301;SDS011;60235;52.234;5.186;2022-08-19T02:58:09;11.60;;;5.82;;
72301;SDS011;60235;52.234;5.186;2022-08-19T03:00:36;11.77;;;5.40;;
72301;SDS011;60235;52.234;5.186;2022-08-19T03:03:07;10.05;;;5.28;;
72301;SDS011;60235;52.234;5.186;2022-08-19T03:05:33;11.18;;;5.57;;
72301;SDS011;60235;52.234;5.186;2022-08-19T03:07:59;11.53;;;5.27;;
72301;SDS011;60235;52.234;5.186;2022-08-19T03:10:25;10.77;;;5.32;;
72301;SDS011;60235;52.234;5.186;2022-08-19T03:12:51;11.02;;;5.88;;
72301;SDS011;60235;52.234;5.186;2022-08-19T03:15:17;11.65;;;5.55;;
72301;SDS011;60235;52.234;5.186;2022-08-19T03:17:43;11.20;;;5.50;;
72301;SDS011;60235;52.234;5.186;2022-08-19T03:20:09;10.48;;;5.38;;
72301;SDS011;60235;52.234;5.186;2022-08-19T03:22:35;11.95;;;5.47;;
72301;SDS011;60235;52.234;5.186;2022-08-19T03:25:01;14.43;;;5.05;;
72301;SDS011;60235;52.234;5.186;2022-08-19T03:27:27;13.55;;;5.10;;
72301;SDS011;60235;52.234;5.186;2022-08-19T03:29:54;12.02;;;5.78;;
72301;SDS011;60235;52.234;5.186;2022-08-19T03:32:20;13.25;;;5.70;;
72301;SDS011;60235;52.234;5.186;2022-08-19T03:34:47;10.68;;;5.65;;
72301;SDS011;60235;52.234;5.186;2022-08-19T03:37:13;12.10;;;6.25;;
72301;SDS011;60235;52.234;5.186;2022-08-19T03:39:39;15.55;;;6.10;;
72301;SDS011;60235;52.234;5.186;2022-08-19T03:42:06;15.27;;;6.88;;
72301;SDS011;60235;52.234;5.186;2022-08-19T03:44:33;16.48;;;7.15;;
72301;SDS011;60235;52.234;5.186;2022-08-19T03:47:01;16.73;;;7.50;;
72301;SDS011;60235;52.234;5.186;2022-08-19T03:49:28;14.48;;;6.97;;
72301;SDS011;60235;52.234;5.186;2022-08-19T03:51:55;17.50;;;7.05;;
72301;SDS011;60235;52.234;5.186;2022-08-19T03:54:22;13.90;;;7.18;;
72301;SDS011;60235;52.234;5.186;2022-08-19T03:56:49;15.00;;;6.85;;
72301;SDS011;60235;52.234;5.186;2022-08-19T03:59:17;13.57;;;6.72;;
72301;SDS011;60235;52.234;5.186;2022-08-19T04:01:43;14.32;;;6.72;;
72301;SDS011;60235;52.234;5.186;2022-08-19T04:04:09;14.73;;;7.50;;
72301;SDS011;60235;52.234;5.186;2022-08-19T04:06:36;16.95;;;7.18;;
72301;SDS011;60235;52.234;5.186;2022-08-19T04:09:04;13.65;;;7.35;;
72301;SDS011;60235;52.234;5.186;2022-08-19T04:11:31;13.90;;;7.45;;
72301;SDS011;60235;52.234;5.186;2022-08-19T04:13:57;17.30;;;8.90;;
72301;SDS011;60235;52.234;5.186;2022-08-19T04:16:27;14.18;;;6.95;;
72301;SDS011;60235;52.234;5.186;2022-08-19T04:18:54;14.52;;;7.30;;
72301;SDS011;60235;52.234;5.186;2022-08-19T04:21:22;18.92;;;7.65;;
72301;SDS011;60235;52.234;5.186;2022-08-19T04:23:48;16.13;;;7.15;;
72301;SDS011;60235;52.234;5.186;2022-08-19T04:26:15;15.88;;;6.95;;
72301;SDS011;60235;52.234;5.186;2022-08-19T04:28:43;14.38;;;7.32;;
72301;SDS011;60235;52.234;5.186;2022-08-19T04:31:13;14.95;;;7.63;;
72301;SDS011;60235;52.234;5.186;2022-08-19T04:33:40;13.90;;;6.88;;
72301;SDS011;60235;52.234;5.186;2022-08-19T04:36:06;16.23;;;7.70;;
72301;SDS011;60235;52.234;5.186;2022-08-19T04:38:32;14.65;;;6.97;;
72301;SDS011;60235;52.234;5.186;2022-08-19T04:40:58;16.42;;;7.57;;
72301;SDS011;60235;52.234;5.186;2022-08-19T04:43:43;15.18;;;7.63;;
72301;SDS011;60235;52.234;5.186;2022-08-19T04:46:14;15.48;;;8.15;;
72301;SDS011;60235;52.234;5.186;2022-08-19T04:48:41;16.80;;;7.75;;
72301;SDS011;60235;52.234;5.186;2022-08-19T04:51:09;18.05;;;9.00;;
72301;SDS011;60235;52.234;5.186;2022-08-19T04:53:37;17.67;;;7.95;;
72301;SDS011;60235;52.234;5.186;2022-08-19T04:56:05;21.88;;;10.25;;
72301;SDS011;60235;52.234;5.186;2022-08-19T04:58:32;29.42;;;12.43;;
72301;SDS011;60235;52.234;5.186;2022-08-19T05:00:58;29.38;;;12.93;;
72301;SDS011;60235;52.234;5.186;2022-08-19T05:03:27;27.08;;;12.73;;
72301;SDS011;60235;52.234;5.186;2022-08-19T05:05:57;27.42;;;12.65;;
72301;SDS011;60235;52.234;5.186;2022-08-19T05:08:23;29.40;;;12.95;;
72301;SDS011;60235;52.234;5.186;2022-08-19T05:10:49;29.23;;;13.95;;
72301;SDS011;60235;52.234;5.186;2022-08-19T05:13:17;29.25;;;14.32;;
72301;SDS011;60235;52.234;5.186;2022-08-19T05:15:43;31.58;;;14.52;;
72301;SDS011;60235;52.234;5.186;2022-08-19T05:18:09;30.95;;;15.32;;
72301;SDS011;60235;52.234;5.186;2022-08-19T05:20:54;33.72;;;16.00;;
72301;SDS011;60235;52.234;5.186;2022-08-19T05:23:49;36.60;;;15.00;;
72301;SDS011;60235;52.234;5.186;2022-08-19T05:26:15;47.40;;;19.73;;
72301;SDS011;60235;52.234;5.186;2022-08-19T05:28:41;44.15;;;19.27;;
72301;SDS011;60235;52.234;5.186;2022-08-19T05:31:07;51.58;;;20.73;;
72301;SDS011;60235;52.234;5.186;2022-08-19T05:33:33;47.83;;;19.90;;
72301;SDS011;60235;52.234;5.186;2022-08-19T05:36:01;52.63;;;23.10;;
72301;SDS011;60235;52.234;5.186;2022-08-19T05:38:27;50.65;;;22.48;;
72301;SDS011;60235;52.234;5.186;2022-08-19T05:40:55;56.30;;;22.80;;
72301;SDS011;60235;52.234;5.186;2022-08-19T05:43:21;54.20;;;23.38;;
72301;SDS011;60235;52.234;5.186;2022-08-19T05:45:47;53.63;;;22.05;;
72301;SDS011;60235;52.234;5.186;2022-08-19T05:48:15;55.97;;;22.13;;
72301;SDS011;60235;52.234;5.186;2022-08-19T05:50:45;53.63;;;23.17;;
72301;SDS011;60235;52.234;5.186;2022-08-19T05:53:11;66.07;;;23.60;;
72301;SDS011;60235;52.234;5.186;2022-08-19T05:55:38;59.28;;;24.23;;
72301;SDS011;60235;52.234;5.186;2022-08-19T05:58:04;73.97;;;25.58;;
72301;SDS011;60235;52.234;5.186;2022-08-19T06:00:32;62.22;;;25.23;;
72301;SDS011;60235;52.234;5.186;2022-08-19T06:02:58;65.20;;;24.52;;
72301;SDS011;60235;52.234;5.186;2022-08-19T06:05:28;64.63;;;24.83;;
72301;SDS011;60235;52.234;5.186;2022-08-19T06:07:54;70.57;;;27.27;;
72301;SDS011;60235;52.234;5.186;2022-08-19T06:10:20;67.50;;;26.98;;
72301;SDS011;60235;52.234;5.186;2022-08-19T06:12:46;71.97;;;27.50;;
72301;SDS011;60235;52.234;5.186;2022-08-19T06:15:13;70.40;;;28.88;;
72301;SDS011;60235;52.234;5.186;2022-08-19T06:17:39;72.60;;;27.67;;
72301;SDS011;60235;52.234;5.186;2022-08-19T06:20:07;75.10;;;27.75;;
72301;SDS011;60235;52.234;5.186;2022-08-19T06:22:38;72.35;;;26.08;;
72301;SDS011;60235;52.234;5.186;2022-08-19T06:25:04;68.07;;;25.73;;
72301;SDS011;60235;52.234;5.186;2022-08-19T06:27:30;72.03;;;28.15;;
72301;SDS011;60235;52.234;5.186;2022-08-19T06:29:57;75.85;;;28.25;;
72301;SDS011;60235;52.234;5.186;2022-08-19T06:32:23;81.63;;;28.02;;
72301;SDS011;60235;52.234;5.186;2022-08-19T06:34:50;79.38;;;27.65;;
72301;SDS011;60235;52.234;5.186;2022-08-19T06:37:16;87.75;;;29.13;;
72301;SDS011;60235;52.234;5.186;2022-08-19T06:39:42;86.13;;;29.42;;
72301;SDS011;60235;52.234;5.186;2022-08-19T06:42:09;86.45;;;31.52;;
72301;SDS011;60235;52.234;5.186;2022-08-19T06:44:38;80.03;;;28.20;;
72301;SDS011;60235;52.234;5.186;2022-08-19T06:47:06;86.82;;;29.77;;
72301;SDS011;60235;52.234;5.186;2022-08-19T06:49:33;82.50;;;28.55;;
72301;SDS011;60235;52.234;5.186;2022-08-19T06:51:59;89.13;;;30.52;;
72301;SDS011;60235;52.234;5.186;2022-08-19T06:54:26;81.95;;;29.67;;
72301;SDS011;60235;52.234;5.186;2022-08-19T06:56:53;79.97;;;28.73;;
72301;SDS011;60235;52.234;5.186;2022-08-19T06:59:20;85.05;;;28.20;;
72301;SDS011;60235;52.234;5.186;2022-08-19T07:01:48;90.63;;;33.83;;
72301;SDS011;60235;52.234;5.186;2022-08-19T07:04:15;96.03;;;31.23;;
72301;SDS011;60235;52.234;5.186;2022-08-19T07:06:42;90.55;;;33.28;;
72301;SDS011;60235;52.234;5.186;2022-08-19T07:09:08;85.45;;;31.40;;
72301;SDS011;60235;52.234;5.186;2022-08-19T07:11:35;93.35;;;31.10;;
72301;SDS011;60235;52.234;5.186;2022-08-19T07:14:01;100.47;;;32.33;;
72301;SDS011;60235;52.234;5.186;2022-08-19T07:16:27;99.10;;;33.58;;
72301;SDS011;60235;52.234;5.186;2022-08-19T07:18:53;102.25;;;34.85;;
72301;SDS011;60235;52.234;5.186;2022-08-19T07:21:20;91.15;;;32.90;;
72301;SDS011;60235;52.234;5.186;2022-08-19T07:23:47;95.93;;;33.28;;
72301;SDS011;60235;52.234;5.186;2022-08-19T07:26:15;98.65;;;31.48;;
72301;SDS011;60235;52.234;5.186;2022-08-19T07:28:41;98.15;;;33.33;;
72301;SDS011;60235;52.234;5.186;2022-08-19T07:31:10;93.07;;;33.83;;
72301;SDS011;60235;52.234;5.186;2022-08-19T07:33:37;102.88;;;35.33;;
72301;SDS011;60235;52.234;5.186;2022-08-19T07:36:04;86.70;;;32.80;;
72301;SDS011;60235;52.234;5.186;2022-08-19T07:38:31;99.47;;;32.90;;
72301;SDS011;60235;52.234;5.186;2022-08-19T07:40:57;92.82;;;34.25;;
72301;SDS011;60235;52.234;5.186;2022-08-19T07:43:23;92.35;;;34.60;;
72301;SDS011;60235;52.234;5.186;2022-08-19T07:45:51;88.07;;;33.88;;
72301;SDS011;60235;52.234;5.186;2022-08-19T07:48:18;98.07;;;34.97;;
72301;SDS011;60235;52.234;5.186;2022-08-19T07:50:44;86.45;;;33.05;;
72301;SDS011;60235;52.234;5.186;2022-08-19T07:53:10;95.75;;;35.25;;
72301;SDS011;60235;52.234;5.186;2022-08-19T07:55:37;98.35;;;34.72;;
72301;SDS011;60235;52.234;5.186;2022-08-19T07:58:03;94.85;;;34.05;;
72301;SDS011;60235;52.234;5.186;2022-08-19T08:00:29;85.95;;;33.35;;
72301;SDS011;60235;52.234;5.186;2022-08-19T08:02:55;88.20;;;34.67;;
72301;SDS011;60235;52.234;5.186;2022-08-19T08:05:22;87.75;;;35.22;;
72301;SDS011;60235;52.234;5.186;2022-08-19T08:08:07;84.90;;;33.97;;
72301;SDS011;60235;52.234;5.186;2022-08-19T08:10:51;81.13;;;35.70;;
72301;SDS011;60235;52.234;5.186;2022-08-19T08:13:17;79.55;;;33.13;;
72301;SDS011;60235;52.234;5.186;2022-08-19T08:15:43;85.18;;;32.78;;
72301;SDS011;60235;52.234;5.186;2022-08-19T08:18:10;76.25;;;32.40;;
72301;SDS011;60235;52.234;5.186;2022-08-19T08:20:37;81.60;;;34.40;;
72301;SDS011;60235;52.234;5.186;2022-08-19T08:23:03;84.57;;;36.22;;
72301;SDS011;60235;52.234;5.186;2022-08-19T08:25:50;79.70;;;31.50;;
72301;SDS011;60235;52.234;5.186;2022-08-19T08:28:16;80.30;;;32.55;;
72301;SDS011;60235;52.234;5.186;2022-08-19T08:30:43;81.07;;;35.05;;
72301;SDS011;60235;52.234;5.186;2022-08-19T08:33:10;79.18;;;33.42;;
72301;SDS011;60235;52.234;5.186;2022-08-19T08:35:36;77.97;;;32.83;;
72301;SDS011;60235;52.234;5.186;2022-08-19T08:38:03;74.43;;;32.30;;
72301;SDS011;60235;52.234;5.186;2022-08-19T08:40:38;79.18;;;34.67;;
72301;SDS011;60235;52.234;5.186;2022-08-19T08:43:09;72.75;;;31.48;;
72301;SDS011;60235;52.234;5.186;2022-08-19T08:45:46;79.05;;;31.38;;
72301;SDS011;60235;52.234;5.186;2022-08-19T08:48:22;65.60;;;31.38;;
72301;SDS011;60235;52.234;5.186;2022-08-19T08:50:49;73.18;;;32.83;;
72301;SDS011;60235;52.234;5.186;2022-08-19T08:53:17;70.65;;;32.60;;
72301;SDS011;60235;52.234;5.186;2022-08-19T08:55:44;73.30;;;34.05;;
72301;SDS011;60235;52.234;5.186;2022-08-19T08:58:15;67.32;;;31.60;;
72301;SDS011;60235;52.234;5.186;2022-08-19T09:00:44;67.72;;;32.88;;
72301;SDS011;60235;52.234;5.186;2022-08-19T09:03:18;62.83;;;30.15;;
72301;SDS011;60235;52.234;5.186;2022-08-19T09:08:25;63.05;;;30.45;;
72301;SDS011;60235;52.234;5.186;2022-08-19T09:10:52;60.17;;;30.35;;
72301;SDS011;60235;52.234;5.186;2022-08-19T09:15:52;60.38;;;29.20;;
72301;SDS011;60235;52.234;5.186;2022-08-19T09:18:19;56.50;;;30.25;;
72301;SDS011;60235;52.234;5.186;2022-08-19T09:20:45;65.75;;;29.85;;
72301;SDS011;60235;52.234;5.186;2022-08-19T09:23:12;64.75;;;29.75;;
72301;SDS011;60235;52.234;5.186;2022-08-19T09:25:38;55.80;;;28.60;;
72301;SDS011;60235;52.234;5.186;2022-08-19T09:28:05;60.72;;;31.95;;
72301;SDS011;60235;52.234;5.186;2022-08-19T09:30:38;56.30;;;29.15;;
72301;SDS011;60235;52.234;5.186;2022-08-19T09:33:04;54.33;;;29.38;;
72301;SDS011;60235;52.234;5.186;2022-08-19T09:35:30;56.80;;;29.90;;
72301;SDS011;60235;52.234;5.186;2022-08-19T09:37:57;60.50;;;30.67;;
72301;SDS011;60235;52.234;5.186;2022-08-19T09:40:23;56.22;;;27.80;;
72301;SDS011;60235;52.234;5.186;2022-08-19T09:42:50;51.78;;;29.52;;
72301;SDS011;60235;52.234;5.186;2022-08-19T09:45:18;55.40;;;29.23;;
72301;SDS011;60235;52.234;5.186;2022-08-19T09:47:46;48.35;;;27.00;;
72301;SDS011;60235;52.234;5.186;2022-08-19T09:50:13;46.47;;;25.45;;
72301;SDS011;60235;52.234;5.186;2022-08-19T09:52:39;48.60;;;25.77;;
72301;SDS011;60235;52.234;5.186;2022-08-19T09:55:07;55.83;;;28.33;;
72301;SDS011;60235;52.234;5.186;2022-08-19T09:57:34;45.63;;;24.35;;
72301;SDS011;60235;52.234;5.186;2022-08-19T10:00:00;46.67;;;27.42;;
72301;SDS011;60235;52.234;5.186;2022-08-19T10:02:26;44.85;;;24.98;;
72301;SDS011;60235;52.234;5.186;2022-08-19T10:04:52;45.03;;;26.52;;
72301;SDS011;60235;52.234;5.186;2022-08-19T10:07:37;41.78;;;24.20;;
72301;SDS011;60235;52.234;5.186;2022-08-19T10:10:04;47.53;;;27.23;;
72301;SDS011;60235;52.234;5.186;2022-08-19T10:12:31;47.42;;;24.95;;
72301;SDS011;60235;52.234;5.186;2022-08-19T10:14:58;42.13;;;24.10;;
72301;SDS011;60235;52.234;5.186;2022-08-19T10:17:24;42.28;;;23.52;;
72301;SDS011;60235;52.234;5.186;2022-08-19T10:19:50;40.65;;;24.38;;
72301;SDS011;60235;52.234;5.186;2022-08-19T10:22:17;41.65;;;24.05;;
72301;SDS011;60235;52.234;5.186;2022-08-19T10:24:43;39.55;;;22.38;;
72301;SDS011;60235;52.234;5.186;2022-08-19T10:27:09;42.40;;;25.60;;
72301;SDS011;60235;52.234;5.186;2022-08-19T10:29:35;43.72;;;23.60;;
72301;SDS011;60235;52.234;5.186;2022-08-19T10:32:02;46.97;;;25.83;;
72301;SDS011;60235;52.234;5.186;2022-08-19T10:34:29;40.95;;;24.20;;
72301;SDS011;60235;52.234;5.186;2022-08-19T10:36:56;41.33;;;23.55;;
72301;SDS011;60235;52.234;5.186;2022-08-19T10:39:22;39.47;;;22.40;;
72301;SDS011;60235;52.234;5.186;2022-08-19T10:41:48;32.92;;;21.35;;
72301;SDS011;60235;52.234;5.186;2022-08-19T10:44:14;39.97;;;25.13;;
72301;SDS011;60235;52.234;5.186;2022-08-19T10:46:42;35.95;;;19.27;;
72301;SDS011;60235;52.234;5.186;2022-08-19T10:49:11;34.88;;;19.30;;
72301;SDS011;60235;52.234;5.186;2022-08-19T10:51:38;36.35;;;21.50;;
72301;SDS011;60235;52.234;5.186;2022-08-19T10:54:24;38.58;;;21.58;;
72301;SDS011;60235;52.234;5.186;2022-08-19T10:57:10;34.33;;;20.13;;
72301;SDS011;60235;52.234;5.186;2022-08-19T10:59:36;25.80;;;14.30;;
72301;SDS011;60235;52.234;5.186;2022-08-19T11:02:04;25.17;;;16.10;;
72301;SDS011;60235;52.234;5.186;2022-08-19T11:04:30;28.27;;;18.02;;
72301;SDS011;60235;52.234;5.186;2022-08-19T11:06:57;29.83;;;19.40;;
72301;SDS011;60235;52.234;5.186;2022-08-19T11:09:24;32.55;;;17.70;;
72301;SDS011;60235;52.234;5.186;2022-08-19T11:11:51;23.95;;;13.70;;
72301;SDS011;60235;52.234;5.186;2022-08-19T11:14:18;27.30;;;13.50;;
72301;SDS011;60235;52.234;5.186;2022-08-19T11:16:45;23.42;;;13.77;;
72301;SDS011;60235;52.234;5.186;2022-08-19T11:19:12;23.13;;;13.02;;
72301;SDS011;60235;52.234;5.186;2022-08-19T11:21:40;19.02;;;10.35;;
72301;SDS011;60235;52.234;5.186;2022-08-19T11:24:09;19.50;;;8.85;;
72301;SDS011;60235;52.234;5.186;2022-08-19T11:26:36;13.95;;;8.30;;
72301;SDS011;60235;52.234;5.186;2022-08-19T11:29:03;14.60;;;8.27;;
72301;SDS011;60235;52.234;5.186;2022-08-19T11:33:57;27.00;;;12.10;;
72301;SDS011;60235;52.234;5.186;2022-08-19T11:36:24;23.13;;;12.52;;
72301;SDS011;60235;52.234;5.186;2022-08-19T11:38:51;26.00;;;12.73;;
72301;SDS011;60235;52.234;5.186;2022-08-19T11:41:17;21.48;;;12.52;;
72301;SDS011;60235;52.234;5.186;2022-08-19T11:43:44;23.75;;;12.88;;
72301;SDS011;60235;52.234;5.186;2022-08-19T11:46:11;21.33;;;12.95;;
72301;SDS011;60235;52.234;5.186;2022-08-19T11:48:38;22.85;;;12.27;;
72301;SDS011;60235;52.234;5.186;2022-08-19T11:51:05;23.20;;;11.75;;
72301;SDS011;60235;52.234;5.186;2022-08-19T11:53:31;21.10;;;12.75;;
72301;SDS011;60235;52.234;5.186;2022-08-19T11:55:57;28.33;;;14.27;;
72301;SDS011;60235;52.234;5.186;2022-08-19T11:58:24;27.52;;;15.73;;
72301;SDS011;60235;52.234;5.186;2022-08-19T12:00:50;30.35;;;16.92;;
72301;SDS011;60235;52.234;5.186;2022-08-19T12:03:16;30.42;;;16.98;;
72301;SDS011;60235;52.234;5.186;2022-08-19T12:05:44;30.27;;;18.15;;
72301;SDS011;60235;52.234;5.186;2022-08-19T12:08:11;31.23;;;19.23;;
72301;SDS011;60235;52.234;5.186;2022-08-19T12:10:40;31.52;;;19.40;;
72301;SDS011;60235;52.234;5.186;2022-08-19T12:13:07;28.63;;;18.67;;
72301;SDS011;60235;52.234;5.186;2022-08-19T12:15:37;29.95;;;18.27;;
72301;SDS011;60235;52.234;5.186;2022-08-19T12:18:05;28.95;;;17.95;;
72301;SDS011;60235;52.234;5.186;2022-08-19T12:20:31;30.20;;;18.58;;
72301;SDS011;60235;52.234;5.186;2022-08-19T12:22:59;26.90;;;15.75;;
72301;SDS011;60235;52.234;5.186;2022-08-19T12:25:25;28.80;;;16.85;;
72301;SDS011;60235;52.234;5.186;2022-08-19T12:27:51;21.35;;;11.55;;
72301;SDS011;60235;52.234;5.186;2022-08-19T12:30:17;19.40;;;9.88;;
72301;SDS011;60235;52.234;5.186;2022-08-19T12:32:43;16.10;;;9.35;;
72301;SDS011;60235;52.234;5.186;2022-08-19T12:35:09;16.95;;;10.27;;
72301;SDS011;60235;52.234;5.186;2022-08-19T12:37:36;19.35;;;11.10;;
72301;SDS011;60235;52.234;5.186;2022-08-19T12:40:02;23.88;;;13.65;;
72301;SDS011;60235;52.234;5.186;2022-08-19T12:42:28;20.83;;;12.55;;
72301;SDS011;60235;52.234;5.186;2022-08-19T12:44:55;21.35;;;11.27;;
72301;SDS011;60235;52.234;5.186;2022-08-19T12:47:21;19.85;;;9.75;;
72301;SDS011;60235;52.234;5.186;2022-08-19T12:49:47;18.33;;;9.35;;
72301;SDS011;60235;52.234;5.186;2022-08-19T12:52:14;19.45;;;8.32;;
72301;SDS011;60235;52.234;5.186;2022-08-19T12:54:40;16.83;;;8.95;;
72301;SDS011;60235;52.234;5.186;2022-08-19T12:57:08;16.50;;;8.00;;
72301;SDS011;60235;52.234;5.186;2022-08-19T12:59:35;15.57;;;7.47;;
72301;SDS011;60235;52.234;5.186;2022-08-19T13:02:01;15.52;;;6.93;;
72301;SDS011;60235;52.234;5.186;2022-08-19T13:04:28;18.38;;;8.07;;
72301;SDS011;60235;52.234;5.186;2022-08-19T13:06:54;11.73;;;6.75;;
72301;SDS011;60235;52.234;5.186;2022-08-19T13:09:20;14.43;;;7.20;;
72301;SDS011;60235;52.234;5.186;2022-08-19T13:11:46;16.52;;;7.38;;
72301;SDS011;60235;52.234;5.186;2022-08-19T13:14:12;15.80;;;6.65;;
72301;SDS011;60235;52.234;5.186;2022-08-19T13:16:38;12.07;;;6.93;;
72301;SDS011;60235;52.234;5.186;2022-08-19T13:19:05;16.70;;;7.13;;
72301;SDS011;60235;52.234;5.186;2022-08-19T13:21:32;12.65;;;7.15;;
72301;SDS011;60235;52.234;5.186;2022-08-19T13:23:58;13.48;;;6.60;;
72301;SDS011;60235;52.234;5.186;2022-08-19T13:26:24;17.70;;;5.90;;
72301;SDS011;60235;52.234;5.186;2022-08-19T13:28:50;13.45;;;7.28;;
72301;SDS011;60235;52.234;5.186;2022-08-19T13:31:35;13.60;;;5.90;;
72301;SDS011;60235;52.234;5.186;2022-08-19T13:34:26;13.77;;;5.93;;
72301;SDS011;60235;52.234;5.186;2022-08-19T13:36:52;14.30;;;5.93;;
72301;SDS011;60235;52.234;5.186;2022-08-19T13:39:19;12.07;;;5.20;;
72301;SDS011;60235;52.234;5.186;2022-08-19T13:41:47;13.13;;;5.38;;
72301;SDS011;60235;52.234;5.186;2022-08-19T13:44:14;11.23;;;5.32;;
72301;SDS011;60235;52.234;5.186;2022-08-19T13:46:43;10.63;;;4.90;;
72301;SDS011;60235;52.234;5.186;2022-08-19T13:49:09;12.55;;;6.22;;
72301;SDS011;60235;52.234;5.186;2022-08-19T13:51:36;12.05;;;5.20;;
72301;SDS011;60235;52.234;5.186;2022-08-19T13:54:04;13.05;;;5.43;;
72301;SDS011;60235;52.234;5.186;2022-08-19T13:56:30;14.25;;;6.20;;
72301;SDS011;60235;52.234;5.186;2022-08-19T13:58:56;13.82;;;5.20;;
72301;SDS011;60235;52.234;5.186;2022-08-19T14:01:23;10.60;;;4.63;;
72301;SDS011;60235;52.234;5.186;2022-08-19T14:03:49;10.80;;;4.28;;
72301;SDS011;60235;52.234;5.186;2022-08-19T14:06:15;7.97;;;3.65;;
72301;SDS011;60235;52.234;5.186;2022-08-19T14:08:41;8.68;;;4.10;;
72301;SDS011;60235;52.234;5.186;2022-08-19T14:11:08;11.13;;;3.22;;
72301;SDS011;60235;52.234;5.186;2022-08-19T14:13:34;8.38;;;3.50;;
72301;SDS011;60235;52.234;5.186;2022-08-19T14:16:00;8.75;;;3.05;;
72301;SDS011;60235;52.234;5.186;2022-08-19T14:18:27;8.48;;;3.17;;
72301;SDS011;60235;52.234;5.186;2022-08-19T14:20:53;13.63;;;3.42;;
72301;SDS011;60235;52.234;5.186;2022-08-19T14:23:19;7.88;;;3.50;;
72301;SDS011;60235;52.234;5.186;2022-08-19T14:25:45;7.30;;;3.33;;
72301;SDS011;60235;52.234;5.186;2022-08-19T14:28:11;8.40;;;2.70;;
72301;SDS011;60235;52.234;5.186;2022-08-19T14:30:37;12.45;;;3.38;;
72301;SDS011;60235;52.234;5.186;2022-08-19T14:33:03;7.40;;;3.10;;
72301;SDS011;60235;52.234;5.186;2022-08-19T14:35:30;6.90;;;2.80;;
72301;SDS011;60235;52.234;5.186;2022-08-19T14:37:59;10.35;;;3.20;;
72301;SDS011;60235;52.234;5.186;2022-08-19T14:40:26;5.82;;;2.53;;